sensor_id;sensor_type;location;lat;lon;timestamp;P1;durP1;ratioP1;P2;durP2;ratioP2
39674;SDS011;27790;50.840;4.386;2024-02-14T00:01:33;7.28;;;3.47;;
39674;SDS011;27790;50.840;4.386;2024-02-14T00:04:02;4.68;;;2.97;;
39674;SDS011;27790;50.840;4.386;2024-02-14T00:06:28;8.05;;;3.55;;
39674;SDS011;27790;50.840;4.386;2024-02-14T00:08:54;7.38;;;3.63;;
39674;SDS011;27790;50.840;4.386;2024-02-14T00:11:19;5.22;;;3.50;;
39674;SDS011;27790;50.840;4.386;2024-02-14T00:13:45;11.15;;;3.65;;
39674;SDS011;27790;50.840;4.386;2024-02-14T00:16:10;6.90;;;3.60;;
39674;SDS011;27790;50.840;4.386;2024-02-14T00:18:36;5.70;;;3.63;;
39674;SDS011;27790;50.840;4.386;2024-02-14T00:21:01;6.50;;;3.08;;
39674;SDS011;27790;50.840;4.386;2024-02-14T00:23:27;3.42;;;3.10;;
39674;SDS011;27790;50.840;4.386;2024-02-14T00:25:53;4.72;;;3.30;;
39674;SDS011;27790;50.840;4.386;2024-02-14T00:28:18;4.18;;;3.17;;
39674;SDS011;27790;50.840;4.386;2024-02-14T00:30:44;5.97;;;3.70;;
39674;SDS011;27790;50.840;4.386;2024-02-14T00:33:10;5.55;;;3.90;;
39674;SDS011;27790;50.840;4.386;2024-02-14T00:35:35;6.50;;;3.40;;
39674;SDS011;27790;50.840;4.386;2024-02-14T00:38:01;5.30;;;3.50;;
39674;SDS011;27790;50.840;4.386;2024-02-14T00:40:26;6.15;;;3.65;;
39674;SDS011;27790;50.840;4.386;2024-02-14T00:42:52;8.07;;;3.58;;
39674;SDS011;27790;50.840;4.386;2024-02-14T00:45:17;3.60;;;2.97;;
39674;SDS011;27790;50.840;4.386;2024-02-14T00:47:43;4.90;;;2.95;;
39674;SDS011;27790;50.840;4.386;2024-02-14T00:50:08;8.27;;;3.30;;
39674;SDS011;27790;50.840;4.386;2024-02-14T00:52:34;5.95;;;3.00;;
39674;SDS011;27790;50.840;4.386;2024-02-14T00:55:00;5.28;;;2.95;;
39674;SDS011;27790;50.840;4.386;2024-02-14T00:57:28;10.50;;;3.45;;
39674;SDS011;27790;50.840;4.386;2024-02-14T00:59:54;5.57;;;3.40;;
39674;SDS011;27790;50.840;4.386;2024-02-14T01:02:21;6.40;;;3.03;;
39674;SDS011;27790;50.840;4.386;2024-02-14T01:04:47;4.10;;;3.17;;
39674;SDS011;27790;50.840;4.386;2024-02-14T01:07:12;5.93;;;3.22;;
39674;SDS011;27790;50.840;4.386;2024-02-14T01:09:38;4.65;;;3.08;;
39674;SDS011;27790;50.840;4.386;2024-02-14T01:12:04;8.85;;;3.63;;
39674;SDS011;27790;50.840;4.386;2024-02-14T01:14:30;6.68;;;4.03;;
39674;SDS011;27790;50.840;4.386;2024-02-14T01:16:56;4.57;;;3.63;;
39674;SDS011;27790;50.840;4.386;2024-02-14T01:19:22;7.57;;;3.50;;
39674;SDS011;27790;50.840;4.386;2024-02-14T01:21:49;9.35;;;4.57;;
39674;SDS011;27790;50.840;4.386;2024-02-14T01:24:15;7.30;;;3.47;;
39674;SDS011;27790;50.840;4.386;2024-02-14T01:26:41;5.47;;;3.15;;
39674;SDS011;27790;50.840;4.386;2024-02-14T01:29:06;6.30;;;4.43;;
39674;SDS011;27790;50.840;4.386;2024-02-14T01:31:32;6.03;;;3.80;;
39674;SDS011;27790;50.840;4.386;2024-02-14T01:33:59;7.82;;;3.50;;
39674;SDS011;27790;50.840;4.386;2024-02-14T01:36:26;6.70;;;3.75;;
39674;SDS011;27790;50.840;4.386;2024-02-14T01:38:53;10.57;;;4.45;;
39674;SDS011;27790;50.840;4.386;2024-02-14T01:41:19;7.43;;;4.45;;
39674;SDS011;27790;50.840;4.386;2024-02-14T01:43:46;8.45;;;4.05;;
39674;SDS011;27790;50.840;4.386;2024-02-14T01:46:12;7.38;;;3.90;;
39674;SDS011;27790;50.840;4.386;2024-02-14T01:48:38;8.25;;;4.43;;
39674;SDS011;27790;50.840;4.386;2024-02-14T01:51:05;8.82;;;3.92;;
39674;SDS011;27790;50.840;4.386;2024-02-14T01:53:33;8.45;;;4.70;;
39674;SDS011;27790;50.840;4.386;2024-02-14T01:56:02;7.00;;;4.20;;
39674;SDS011;27790;50.840;4.386;2024-02-14T01:58:29;9.18;;;4.70;;
39674;SDS011;27790;50.840;4.386;2024-02-14T02:00:55;8.88;;;4.90;;
39674;SDS011;27790;50.840;4.386;2024-02-14T02:03:24;8.73;;;4.88;;
39674;SDS011;27790;50.840;4.386;2024-02-14T02:05:51;10.52;;;5.25;;
39674;SDS011;27790;50.840;4.386;2024-02-14T02:08:18;8.40;;;5.10;;
39674;SDS011;27790;50.840;4.386;2024-02-14T02:10:44;11.32;;;5.45;;
39674;SDS011;27790;50.840;4.386;2024-02-14T02:13:10;9.98;;;5.68;;
39674;SDS011;27790;50.840;4.386;2024-02-14T02:15:35;7.88;;;4.68;;
39674;SDS011;27790;50.840;4.386;2024-02-14T02:18:02;10.43;;;5.22;;
39674;SDS011;27790;50.840;4.386;2024-02-14T02:20:30;15.88;;;5.82;;
39674;SDS011;27790;50.840;4.386;2024-02-14T02:22:57;11.73;;;5.43;;
39674;SDS011;27790;50.840;4.386;2024-02-14T02:25:22;6.65;;;4.43;;
39674;SDS011;27790;50.840;4.386;2024-02-14T02:27:49;9.80;;;5.05;;
39674;SDS011;27790;50.840;4.386;2024-02-14T02:30:15;7.75;;;4.88;;
39674;SDS011;27790;50.840;4.386;2024-02-14T02:32:41;13.25;;;5.20;;
39674;SDS011;27790;50.840;4.386;2024-02-14T02:37:37;7.05;;;5.28;;
39674;SDS011;27790;50.840;4.386;2024-02-14T02:40:02;7.47;;;4.38;;
39674;SDS011;27790;50.840;4.386;2024-02-14T02:42:29;11.32;;;4.75;;
39674;SDS011;27790;50.840;4.386;2024-02-14T02:44:55;9.30;;;4.80;;
39674;SDS011;27790;50.840;4.386;2024-02-14T02:47:20;7.45;;;5.25;;
39674;SDS011;27790;50.840;4.386;2024-02-14T02:49:46;14.68;;;5.57;;
39674;SDS011;27790;50.840;4.386;2024-02-14T02:52:12;8.68;;;5.38;;
39674;SDS011;27790;50.840;4.386;2024-02-14T02:54:37;8.65;;;4.70;;
39674;SDS011;27790;50.840;4.386;2024-02-14T02:57:08;9.88;;;6.22;;
39674;SDS011;27790;50.840;4.386;2024-02-14T02:59:37;11.10;;;4.95;;
39674;SDS011;27790;50.840;4.386;2024-02-14T03:02:04;6.88;;;4.97;;
39674;SDS011;27790;50.840;4.386;2024-02-14T03:04:33;10.20;;;5.15;;
39674;SDS011;27790;50.840;4.386;2024-02-14T03:06:59;12.60;;;5.70;;
39674;SDS011;27790;50.840;4.386;2024-02-14T03:09:24;7.40;;;5.05;;
39674;SDS011;27790;50.840;4.386;2024-02-14T03:11:51;9.77;;;5.18;;
39674;SDS011;27790;50.840;4.386;2024-02-14T03:14:17;8.68;;;5.05;;
39674;SDS011;27790;50.840;4.386;2024-02-14T03:16:42;7.95;;;5.18;;
39674;SDS011;27790;50.840;4.386;2024-02-14T03:19:08;14.63;;;6.07;;
39674;SDS011;27790;50.840;4.386;2024-02-14T03:21:33;13.68;;;6.07;;
39674;SDS011;27790;50.840;4.386;2024-02-14T03:24:00;11.68;;;5.72;;
39674;SDS011;27790;50.840;4.386;2024-02-14T03:26:28;11.48;;;5.68;;
39674;SDS011;27790;50.840;4.386;2024-02-14T03:28:53;10.00;;;5.57;;
39674;SDS011;27790;50.840;4.386;2024-02-14T03:31:19;12.88;;;7.38;;
39674;SDS011;27790;50.840;4.386;2024-02-14T03:33:45;12.35;;;6.32;;
39674;SDS011;27790;50.840;4.386;2024-02-14T03:36:11;11.50;;;6.07;;
39674;SDS011;27790;50.840;4.386;2024-02-14T03:38:36;14.57;;;6.40;;
39674;SDS011;27790;50.840;4.386;2024-02-14T03:41:04;13.75;;;6.40;;
39674;SDS011;27790;50.840;4.386;2024-02-14T03:43:30;17.38;;;6.85;;
39674;SDS011;27790;50.840;4.386;2024-02-14T03:45:57;12.85;;;6.45;;
39674;SDS011;27790;50.840;4.386;2024-02-14T03:48:22;13.63;;;6.47;;
39674;SDS011;27790;50.840;4.386;2024-02-14T03:50:48;15.07;;;6.15;;
39674;SDS011;27790;50.840;4.386;2024-02-14T03:53:13;12.32;;;7.22;;
39674;SDS011;27790;50.840;4.386;2024-02-14T03:55:39;13.15;;;6.82;;
39674;SDS011;27790;50.840;4.386;2024-02-14T03:58:05;17.83;;;7.13;;
39674;SDS011;27790;50.840;4.386;2024-02-14T04:00:33;18.02;;;7.20;;
39674;SDS011;27790;50.840;4.386;2024-02-14T04:03:00;14.90;;;7.22;;
39674;SDS011;27790;50.840;4.386;2024-02-14T04:05:27;16.98;;;7.28;;
39674;SDS011;27790;50.840;4.386;2024-02-14T04:07:53;19.60;;;7.45;;
39674;SDS011;27790;50.840;4.386;2024-02-14T04:10:19;17.83;;;7.45;;
39674;SDS011;27790;50.840;4.386;2024-02-14T04:12:45;15.05;;;6.70;;
39674;SDS011;27790;50.840;4.386;2024-02-14T04:15:11;17.98;;;8.00;;
39674;SDS011;27790;50.840;4.386;2024-02-14T04:17:37;13.15;;;6.80;;
39674;SDS011;27790;50.840;4.386;2024-02-14T04:20:04;18.73;;;7.57;;
39674;SDS011;27790;50.840;4.386;2024-02-14T04:22:30;15.10;;;8.45;;
39674;SDS011;27790;50.840;4.386;2024-02-14T04:24:56;15.68;;;7.72;;
39674;SDS011;27790;50.840;4.386;2024-02-14T04:27:21;14.93;;;8.25;;
39674;SDS011;27790;50.840;4.386;2024-02-14T04:29:47;11.80;;;7.13;;
39674;SDS011;27790;50.840;4.386;2024-02-14T04:32:13;14.95;;;8.25;;
39674;SDS011;27790;50.840;4.386;2024-02-14T04:34:39;16.70;;;8.48;;
39674;SDS011;27790;50.840;4.386;2024-02-14T04:37:05;14.25;;;8.10;;
39674;SDS011;27790;50.840;4.386;2024-02-14T04:39:39;14.77;;;7.85;;
39674;SDS011;27790;50.840;4.386;2024-02-14T04:42:04;13.02;;;8.43;;
39674;SDS011;27790;50.840;4.386;2024-02-14T04:44:31;14.98;;;7.78;;
39674;SDS011;27790;50.840;4.386;2024-02-14T04:46:57;13.43;;;8.55;;
39674;SDS011;27790;50.840;4.386;2024-02-14T04:49:26;19.42;;;7.95;;
39674;SDS011;27790;50.840;4.386;2024-02-14T04:51:54;17.83;;;7.80;;
39674;SDS011;27790;50.840;4.386;2024-02-14T04:54:20;11.32;;;6.70;;
39674;SDS011;27790;50.840;4.386;2024-02-14T04:56:45;14.18;;;7.05;;
39674;SDS011;27790;50.840;4.386;2024-02-14T04:59:11;14.05;;;7.32;;
39674;SDS011;27790;50.840;4.386;2024-02-14T05:01:37;9.90;;;7.03;;
39674;SDS011;27790;50.840;4.386;2024-02-14T05:04:04;12.82;;;7.32;;
39674;SDS011;27790;50.840;4.386;2024-02-14T05:06:30;19.35;;;8.32;;
39674;SDS011;27790;50.840;4.386;2024-02-14T05:08:56;16.10;;;7.90;;
39674;SDS011;27790;50.840;4.386;2024-02-14T05:11:21;12.02;;;7.97;;
39674;SDS011;27790;50.840;4.386;2024-02-14T05:13:47;12.95;;;6.95;;
39674;SDS011;27790;50.840;4.386;2024-02-14T05:16:13;18.15;;;7.03;;
39674;SDS011;27790;50.840;4.386;2024-02-14T05:18:42;12.90;;;7.38;;
39674;SDS011;27790;50.840;4.386;2024-02-14T05:21:08;13.93;;;6.80;;
39674;SDS011;27790;50.840;4.386;2024-02-14T05:23:34;19.50;;;8.13;;
39674;SDS011;27790;50.840;4.386;2024-02-14T05:26:01;13.30;;;7.90;;
39674;SDS011;27790;50.840;4.386;2024-02-14T05:28:27;12.43;;;7.28;;
39674;SDS011;27790;50.840;4.386;2024-02-14T05:30:53;16.48;;;8.02;;
39674;SDS011;27790;50.840;4.386;2024-02-14T05:33:19;12.25;;;7.00;;
39674;SDS011;27790;50.840;4.386;2024-02-14T05:35:50;16.55;;;6.97;;
39674;SDS011;27790;50.840;4.386;2024-02-14T05:38:16;10.60;;;6.90;;
39674;SDS011;27790;50.840;4.386;2024-02-14T05:40:41;16.33;;;7.43;;
39674;SDS011;27790;50.840;4.386;2024-02-14T05:43:09;12.38;;;7.53;;
39674;SDS011;27790;50.840;4.386;2024-02-14T05:45:35;15.88;;;7.65;;
39674;SDS011;27790;50.840;4.386;2024-02-14T05:48:01;17.00;;;8.18;;
39674;SDS011;27790;50.840;4.386;2024-02-14T05:50:27;15.70;;;8.13;;
39674;SDS011;27790;50.840;4.386;2024-02-14T05:52:52;14.98;;;8.15;;
39674;SDS011;27790;50.840;4.386;2024-02-14T05:55:18;16.50;;;7.63;;
39674;SDS011;27790;50.840;4.386;2024-02-14T05:57:44;12.75;;;6.68;;
39674;SDS011;27790;50.840;4.386;2024-02-14T06:00:09;12.90;;;7.43;;
39674;SDS011;27790;50.840;4.386;2024-02-14T06:02:37;14.07;;;7.18;;
39674;SDS011;27790;50.840;4.386;2024-02-14T06:05:04;14.60;;;7.85;;
39674;SDS011;27790;50.840;4.386;2024-02-14T06:07:34;10.98;;;7.03;;
39674;SDS011;27790;50.840;4.386;2024-02-14T06:10:02;11.98;;;6.72;;
39674;SDS011;27790;50.840;4.386;2024-02-14T06:12:28;17.98;;;7.43;;
39674;SDS011;27790;50.840;4.386;2024-02-14T06:14:54;11.68;;;6.72;;
39674;SDS011;27790;50.840;4.386;2024-02-14T06:17:20;20.42;;;7.90;;
39674;SDS011;27790;50.840;4.386;2024-02-14T06:19:46;13.63;;;7.03;;
39674;SDS011;27790;50.840;4.386;2024-02-14T06:22:12;18.58;;;7.75;;
39674;SDS011;27790;50.840;4.386;2024-02-14T06:24:37;11.90;;;7.68;;
39674;SDS011;27790;50.840;4.386;2024-02-14T06:27:03;12.07;;;7.32;;
39674;SDS011;27790;50.840;4.386;2024-02-14T06:29:29;15.50;;;7.38;;
39674;SDS011;27790;50.840;4.386;2024-02-14T06:31:55;17.70;;;7.38;;
39674;SDS011;27790;50.840;4.386;2024-02-14T06:34:20;13.07;;;6.45;;
39674;SDS011;27790;50.840;4.386;2024-02-14T06:36:46;29.63;;;9.60;;
39674;SDS011;27790;50.840;4.386;2024-02-14T06:39:12;38.88;;;8.73;;
39674;SDS011;27790;50.840;4.386;2024-02-14T06:41:38;21.52;;;8.27;;
39674;SDS011;27790;50.840;4.386;2024-02-14T06:44:05;19.33;;;7.55;;
39674;SDS011;27790;50.840;4.386;2024-02-14T06:46:31;55.10;;;11.75;;
39674;SDS011;27790;50.840;4.386;2024-02-14T06:48:56;72.45;;;12.57;;
39674;SDS011;27790;50.840;4.386;2024-02-14T06:51:25;41.05;;;9.38;;
39674;SDS011;27790;50.840;4.386;2024-02-14T06:53:50;35.03;;;8.55;;
39674;SDS011;27790;50.840;4.386;2024-02-14T06:56:16;14.63;;;8.00;;
39674;SDS011;27790;50.840;4.386;2024-02-14T06:58:41;14.52;;;6.88;;
39674;SDS011;27790;50.840;4.386;2024-02-14T07:01:07;15.18;;;6.85;;
39674;SDS011;27790;50.840;4.386;2024-02-14T07:03:33;20.00;;;7.88;;
39674;SDS011;27790;50.840;4.386;2024-02-14T07:05:59;20.30;;;8.15;;
39674;SDS011;27790;50.840;4.386;2024-02-14T07:08:24;13.43;;;7.60;;
39674;SDS011;27790;50.840;4.386;2024-02-14T07:10:53;22.95;;;6.93;;
39674;SDS011;27790;50.840;4.386;2024-02-14T07:13:20;18.38;;;8.13;;
39674;SDS011;27790;50.840;4.386;2024-02-14T07:15:45;19.90;;;7.07;;
39674;SDS011;27790;50.840;4.386;2024-02-14T07:18:11;25.15;;;7.50;;
39674;SDS011;27790;50.840;4.386;2024-02-14T07:20:36;17.77;;;8.52;;
39674;SDS011;27790;50.840;4.386;2024-02-14T07:23:02;15.35;;;7.00;;
39674;SDS011;27790;50.840;4.386;2024-02-14T07:25:28;17.17;;;8.02;;
39674;SDS011;27790;50.840;4.386;2024-02-14T07:27:54;20.42;;;8.85;;
39674;SDS011;27790;50.840;4.386;2024-02-14T07:30:20;16.70;;;7.63;;
39674;SDS011;27790;50.840;4.386;2024-02-14T07:32:45;17.67;;;7.68;;
39674;SDS011;27790;50.840;4.386;2024-02-14T07:35:11;20.88;;;8.00;;
39674;SDS011;27790;50.840;4.386;2024-02-14T07:37:38;15.07;;;8.50;;
39674;SDS011;27790;50.840;4.386;2024-02-14T07:40:04;36.58;;;7.80;;
39674;SDS011;27790;50.840;4.386;2024-02-14T07:42:30;14.88;;;7.95;;
39674;SDS011;27790;50.840;4.386;2024-02-14T07:44:56;16.55;;;7.43;;
39674;SDS011;27790;50.840;4.386;2024-02-14T07:47:22;17.73;;;8.10;;
39674;SDS011;27790;50.840;4.386;2024-02-14T07:49:47;14.55;;;7.25;;
39674;SDS011;27790;50.840;4.386;2024-02-14T07:52:13;12.40;;;6.90;;
39674;SDS011;27790;50.840;4.386;2024-02-14T07:54:38;15.75;;;7.85;;
39674;SDS011;27790;50.840;4.386;2024-02-14T07:57:04;17.55;;;7.90;;
39674;SDS011;27790;50.840;4.386;2024-02-14T07:59:30;15.15;;;7.15;;
39674;SDS011;27790;50.840;4.386;2024-02-14T08:01:55;15.23;;;7.18;;
39674;SDS011;27790;50.840;4.386;2024-02-14T08:04:22;13.75;;;7.60;;
39674;SDS011;27790;50.840;4.386;2024-02-14T08:06:48;15.50;;;8.07;;
39674;SDS011;27790;50.840;4.386;2024-02-14T08:09:16;20.38;;;7.38;;
39674;SDS011;27790;50.840;4.386;2024-02-14T08:11:42;15.30;;;7.53;;
39674;SDS011;27790;50.840;4.386;2024-02-14T08:14:07;17.15;;;7.28;;
39674;SDS011;27790;50.840;4.386;2024-02-14T08:16:33;16.15;;;8.50;;
39674;SDS011;27790;50.840;4.386;2024-02-14T08:18:59;24.23;;;8.40;;
39674;SDS011;27790;50.840;4.386;2024-02-14T08:21:28;21.33;;;8.05;;
39674;SDS011;27790;50.840;4.386;2024-02-14T08:23:53;16.27;;;8.73;;
39674;SDS011;27790;50.840;4.386;2024-02-14T08:26:20;13.95;;;7.68;;
39674;SDS011;27790;50.840;4.386;2024-02-14T08:28:47;18.85;;;8.07;;
39674;SDS011;27790;50.840;4.386;2024-02-14T08:31:13;14.48;;;8.13;;
39674;SDS011;27790;50.840;4.386;2024-02-14T08:33:39;14.32;;;7.15;;
39674;SDS011;27790;50.840;4.386;2024-02-14T08:36:05;22.63;;;7.97;;
39674;SDS011;27790;50.840;4.386;2024-02-14T08:38:31;17.17;;;8.25;;
39674;SDS011;27790;50.840;4.386;2024-02-14T08:40:58;16.38;;;7.60;;
39674;SDS011;27790;50.840;4.386;2024-02-14T08:43:23;18.77;;;8.00;;
39674;SDS011;27790;50.840;4.386;2024-02-14T08:45:53;13.90;;;8.07;;
39674;SDS011;27790;50.840;4.386;2024-02-14T08:48:19;17.38;;;8.07;;
39674;SDS011;27790;50.840;4.386;2024-02-14T08:50:45;14.50;;;7.95;;
39674;SDS011;27790;50.840;4.386;2024-02-14T08:53:11;27.05;;;9.68;;
39674;SDS011;27790;50.840;4.386;2024-02-14T08:55:38;15.27;;;8.38;;
39674;SDS011;27790;50.840;4.386;2024-02-14T08:58:07;21.63;;;9.15;;
39674;SDS011;27790;50.840;4.386;2024-02-14T09:00:36;24.88;;;9.18;;
39674;SDS011;27790;50.840;4.386;2024-02-14T09:03:03;24.45;;;7.97;;
39674;SDS011;27790;50.840;4.386;2024-02-14T09:05:29;15.20;;;7.60;;
39674;SDS011;27790;50.840;4.386;2024-02-14T09:07:56;24.05;;;8.70;;
39674;SDS011;27790;50.840;4.386;2024-02-14T09:10:22;23.58;;;9.30;;
39674;SDS011;27790;50.840;4.386;2024-02-14T09:12:47;17.70;;;8.90;;
39674;SDS011;27790;50.840;4.386;2024-02-14T09:15:13;14.82;;;7.97;;
39674;SDS011;27790;50.840;4.386;2024-02-14T09:17:39;12.63;;;7.78;;
39674;SDS011;27790;50.840;4.386;2024-02-14T09:20:06;18.27;;;8.18;;
39674;SDS011;27790;50.840;4.386;2024-02-14T09:22:35;17.20;;;8.40;;
39674;SDS011;27790;50.840;4.386;2024-02-14T09:25:01;14.93;;;7.88;;
39674;SDS011;27790;50.840;4.386;2024-02-14T09:27:31;13.07;;;7.93;;
39674;SDS011;27790;50.840;4.386;2024-02-14T09:29:57;13.88;;;7.72;;
39674;SDS011;27790;50.840;4.386;2024-02-14T09:32:23;14.15;;;10.15;;
39674;SDS011;27790;50.840;4.386;2024-02-14T09:34:48;10.65;;;7.70;;
39674;SDS011;27790;50.840;4.386;2024-02-14T09:37:14;13.82;;;8.85;;
39674;SDS011;27790;50.840;4.386;2024-02-14T09:39:40;13.07;;;7.05;;
39674;SDS011;27790;50.840;4.386;2024-02-14T09:42:08;16.77;;;8.85;;
39674;SDS011;27790;50.840;4.386;2024-02-14T09:44:36;14.65;;;8.68;;
39674;SDS011;27790;50.840;4.386;2024-02-14T09:47:04;15.27;;;7.53;;
39674;SDS011;27790;50.840;4.386;2024-02-14T09:49:31;17.52;;;7.53;;
39674;SDS011;27790;50.840;4.386;2024-02-14T09:51:57;10.75;;;6.93;;
39674;SDS011;27790;50.840;4.386;2024-02-14T09:54:24;14.75;;;6.70;;
39674;SDS011;27790;50.840;4.386;2024-02-14T09:56:50;11.30;;;6.63;;
39674;SDS011;27790;50.840;4.386;2024-02-14T09:59:19;13.98;;;6.55;;
39674;SDS011;27790;50.840;4.386;2024-02-14T10:01:46;16.23;;;7.22;;
39674;SDS011;27790;50.840;4.386;2024-02-14T10:04:14;13.25;;;6.50;;
39674;SDS011;27790;50.840;4.386;2024-02-14T10:06:40;12.25;;;6.72;;
39674;SDS011;27790;50.840;4.386;2024-02-14T10:09:05;11.98;;;7.32;;
39674;SDS011;27790;50.840;4.386;2024-02-14T10:11:31;14.05;;;6.70;;
39674;SDS011;27790;50.840;4.386;2024-02-14T10:13:58;11.63;;;6.30;;
39674;SDS011;27790;50.840;4.386;2024-02-14T10:16:28;10.85;;;6.25;;
39674;SDS011;27790;50.840;4.386;2024-02-14T10:18:53;8.50;;;5.63;;
39674;SDS011;27790;50.840;4.386;2024-02-14T10:21:19;8.48;;;5.97;;
39674;SDS011;27790;50.840;4.386;2024-02-14T10:23:46;8.60;;;5.63;;
39674;SDS011;27790;50.840;4.386;2024-02-14T10:26:14;8.70;;;5.25;;
39674;SDS011;27790;50.840;4.386;2024-02-14T10:28:41;7.18;;;5.15;;
39674;SDS011;27790;50.840;4.386;2024-02-14T10:31:10;7.88;;;4.53;;
39674;SDS011;27790;50.840;4.386;2024-02-14T10:33:36;5.35;;;4.15;;
39674;SDS011;27790;50.840;4.386;2024-02-14T10:36:02;10.45;;;4.80;;
39674;SDS011;27790;50.840;4.386;2024-02-14T10:38:32;8.45;;;4.70;;
39674;SDS011;27790;50.840;4.386;2024-02-14T10:40:58;7.25;;;4.50;;
39674;SDS011;27790;50.840;4.386;2024-02-14T10:43:25;7.75;;;3.92;;
39674;SDS011;27790;50.840;4.386;2024-02-14T10:45:52;10.50;;;4.70;;
39674;SDS011;27790;50.840;4.386;2024-02-14T10:48:19;7.65;;;4.10;;
39674;SDS011;27790;50.840;4.386;2024-02-14T10:50:50;7.40;;;4.15;;
39674;SDS011;27790;50.840;4.386;2024-02-14T10:53:18;4.75;;;3.72;;
39674;SDS011;27790;50.840;4.386;2024-02-14T10:55:46;4.40;;;3.50;;
39674;SDS011;27790;50.840;4.386;2024-02-14T10:58:14;4.70;;;3.85;;
39674;SDS011;27790;50.840;4.386;2024-02-14T11:00:42;7.30;;;3.60;;
39674;SDS011;27790;50.840;4.386;2024-02-14T11:03:08;3.42;;;2.85;;
39674;SDS011;27790;50.840;4.386;2024-02-14T11:08:07;5.60;;;3.17;;
39674;SDS011;27790;50.840;4.386;2024-02-14T11:10:36;5.90;;;4.03;;
39674;SDS011;27790;50.840;4.386;2024-02-14T11:13:02;9.38;;;3.60;;
39674;SDS011;27790;50.840;4.386;2024-02-14T11:15:28;3.60;;;2.78;;
39674;SDS011;27790;50.840;4.386;2024-02-14T11:18:03;4.43;;;3.13;;
39674;SDS011;27790;50.840;4.386;2024-02-14T11:20:36;9.00;;;3.88;;
39674;SDS011;27790;50.840;4.386;2024-02-14T11:23:03;7.65;;;4.43;;
39674;SDS011;27790;50.840;4.386;2024-02-14T11:25:39;6.10;;;4.20;;
39674;SDS011;27790;50.840;4.386;2024-02-14T11:28:17;6.00;;;3.75;;
39674;SDS011;27790;50.840;4.386;2024-02-14T11:30:49;6.22;;;3.95;;
39674;SDS011;27790;50.840;4.386;2024-02-14T11:33:15;6.78;;;3.97;;
39674;SDS011;27790;50.840;4.386;2024-02-14T11:35:43;6.47;;;4.32;;
39674;SDS011;27790;50.840;4.386;2024-02-14T11:38:12;5.00;;;4.03;;
39674;SDS011;27790;50.840;4.386;2024-02-14T11:40:37;13.63;;;5.15;;
39674;SDS011;27790;50.840;4.386;2024-02-14T11:43:04;5.22;;;3.63;;
39674;SDS011;27790;50.840;4.386;2024-02-14T11:45:34;7.25;;;3.80;;
39674;SDS011;27790;50.840;4.386;2024-02-14T11:48:00;7.63;;;4.47;;
39674;SDS011;27790;50.840;4.386;2024-02-14T11:50:26;11.07;;;3.97;;
39674;SDS011;27790;50.840;4.386;2024-02-14T11:52:53;10.52;;;4.95;;
39674;SDS011;27790;50.840;4.386;2024-02-14T11:55:19;9.88;;;4.88;;
39674;SDS011;27790;50.840;4.386;2024-02-14T11:57:53;12.80;;;4.95;;
39674;SDS011;27790;50.840;4.386;2024-02-14T12:00:18;8.70;;;5.13;;
39674;SDS011;27790;50.840;4.386;2024-02-14T12:02:44;8.15;;;4.82;;
39674;SDS011;27790;50.840;4.386;2024-02-14T12:05:10;8.75;;;4.90;;
39674;SDS011;27790;50.840;4.386;2024-02-14T12:07:36;11.30;;;4.90;;
39674;SDS011;27790;50.840;4.386;2024-02-14T12:10:01;9.57;;;5.30;;
39674;SDS011;27790;50.840;4.386;2024-02-14T12:12:28;7.85;;;5.05;;
39674;SDS011;27790;50.840;4.386;2024-02-14T12:14:53;7.70;;;4.93;;
39674;SDS011;27790;50.840;4.386;2024-02-14T12:17:19;8.85;;;4.50;;
39674;SDS011;27790;50.840;4.386;2024-02-14T12:19:44;9.10;;;4.35;;
39674;SDS011;27790;50.840;4.386;2024-02-14T12:22:11;9.90;;;4.68;;
39674;SDS011;27790;50.840;4.386;2024-02-14T12:24:42;11.55;;;5.15;;
39674;SDS011;27790;50.840;4.386;2024-02-14T12:27:13;9.93;;;4.80;;
39674;SDS011;27790;50.840;4.386;2024-02-14T12:29:41;7.00;;;3.83;;
39674;SDS011;27790;50.840;4.386;2024-02-14T12:32:10;10.95;;;4.65;;
39674;SDS011;27790;50.840;4.386;2024-02-14T12:34:37;11.13;;;4.88;;
39674;SDS011;27790;50.840;4.386;2024-02-14T12:37:02;13.20;;;5.13;;
39674;SDS011;27790;50.840;4.386;2024-02-14T12:39:28;11.38;;;4.97;;
39674;SDS011;27790;50.840;4.386;2024-02-14T12:41:54;11.43;;;4.53;;
39674;SDS011;27790;50.840;4.386;2024-02-14T12:44:20;9.38;;;4.57;;
39674;SDS011;27790;50.840;4.386;2024-02-14T12:46:45;10.48;;;5.03;;
39674;SDS011;27790;50.840;4.386;2024-02-14T12:49:11;10.77;;;4.47;;
39674;SDS011;27790;50.840;4.386;2024-02-14T12:51:37;8.50;;;3.95;;
39674;SDS011;27790;50.840;4.386;2024-02-14T12:54:03;11.90;;;4.68;;
39674;SDS011;27790;50.840;4.386;2024-02-14T12:56:29;9.95;;;4.03;;
39674;SDS011;27790;50.840;4.386;2024-02-14T12:58:55;6.90;;;4.35;;
39674;SDS011;27790;50.840;4.386;2024-02-14T13:01:20;13.65;;;4.32;;
39674;SDS011;27790;50.840;4.386;2024-02-14T13:03:46;8.57;;;4.78;;
39674;SDS011;27790;50.840;4.386;2024-02-14T13:06:11;9.57;;;4.75;;
39674;SDS011;27790;50.840;4.386;2024-02-14T13:08:38;9.30;;;4.22;;
39674;SDS011;27790;50.840;4.386;2024-02-14T13:11:04;13.32;;;3.88;;
39674;SDS011;27790;50.840;4.386;2024-02-14T13:13:30;5.90;;;3.78;;
39674;SDS011;27790;50.840;4.386;2024-02-14T13:15:56;5.53;;;3.25;;
39674;SDS011;27790;50.840;4.386;2024-02-14T13:18:21;5.40;;;3.42;;
39674;SDS011;27790;50.840;4.386;2024-02-14T13:20:47;7.20;;;3.65;;
39674;SDS011;27790;50.840;4.386;2024-02-14T13:23:15;11.27;;;3.90;;
39674;SDS011;27790;50.840;4.386;2024-02-14T13:25:41;5.07;;;3.30;;
39674;SDS011;27790;50.840;4.386;2024-02-14T13:28:07;7.90;;;4.32;;
39674;SDS011;27790;50.840;4.386;2024-02-14T13:30:32;5.97;;;3.58;;
39674;SDS011;27790;50.840;4.386;2024-02-14T13:32:58;12.25;;;3.58;;
39674;SDS011;27790;50.840;4.386;2024-02-14T13:35:23;6.43;;;3.92;;
39674;SDS011;27790;50.840;4.386;2024-02-14T13:37:49;10.15;;;4.53;;
39674;SDS011;27790;50.840;4.386;2024-02-14T13:40:15;7.45;;;3.65;;
39674;SDS011;27790;50.840;4.386;2024-02-14T13:42:40;13.02;;;4.32;;
39674;SDS011;27790;50.840;4.386;2024-02-14T13:45:06;7.07;;;3.83;;
39674;SDS011;27790;50.840;4.386;2024-02-14T13:47:39;8.00;;;3.65;;
39674;SDS011;27790;50.840;4.386;2024-02-14T13:50:05;6.53;;;3.20;;
39674;SDS011;27790;50.840;4.386;2024-02-14T13:52:32;5.80;;;3.33;;
39674;SDS011;27790;50.840;4.386;2024-02-14T13:54:59;7.18;;;3.25;;
39674;SDS011;27790;50.840;4.386;2024-02-14T13:57:24;7.38;;;3.58;;
39674;SDS011;27790;50.840;4.386;2024-02-14T13:59:50;4.65;;;3.22;;
39674;SDS011;27790;50.840;4.386;2024-02-14T14:02:15;6.40;;;3.15;;
39674;SDS011;27790;50.840;4.386;2024-02-14T14:04:41;6.38;;;3.17;;
39674;SDS011;27790;50.840;4.386;2024-02-14T14:07:07;5.93;;;2.90;;
39674;SDS011;27790;50.840;4.386;2024-02-14T14:09:33;5.13;;;2.78;;
39674;SDS011;27790;50.840;4.386;2024-02-14T14:11:58;6.60;;;3.20;;
39674;SDS011;27790;50.840;4.386;2024-02-14T14:14:24;3.40;;;2.83;;
39674;SDS011;27790;50.840;4.386;2024-02-14T14:16:52;6.85;;;3.30;;
39674;SDS011;27790;50.840;4.386;2024-02-14T14:19:18;8.05;;;2.60;;
39674;SDS011;27790;50.840;4.386;2024-02-14T14:21:43;7.88;;;2.55;;
39674;SDS011;27790;50.840;4.386;2024-02-14T14:24:09;5.07;;;2.80;;
39674;SDS011;27790;50.840;4.386;2024-02-14T14:26:34;6.53;;;2.58;;
39674;SDS011;27790;50.840;4.386;2024-02-14T14:29:00;3.83;;;2.25;;
39674;SDS011;27790;50.840;4.386;2024-02-14T14:31:26;4.53;;;2.33;;
39674;SDS011;27790;50.840;4.386;2024-02-14T14:33:52;5.68;;;2.83;;
39674;SDS011;27790;50.840;4.386;2024-02-14T14:36:18;2.70;;;2.20;;
39674;SDS011;27790;50.840;4.386;2024-02-14T14:38:44;7.65;;;2.92;;
39674;SDS011;27790;50.840;4.386;2024-02-14T14:41:10;3.42;;;1.90;;